Latest Weather Observations for Lancelin (Defence)

IDW60801

Issued at 10:53 pm WST Monday 29 November 2021 (issued every 10 minutes, with the page automatically refreshed every 10 minutes)

About weather observations | Map of weather stations | Latest weather observations for WA | Other Formats
Station Details ID: 009280 Name: LANCELIN (DEFENCE) Lat: -30.84 Lon: 115.23 Height: 3.41 m
Data from the previous 72 hours. | See also: Recent months at Lancelin (Defence)
Date/Time
WST
Temp
°C
App
Temp
°C
Dew
Point
°C
Rel
Hum
%
Delta-T
°C
Wind Press
QNH
hPa
Press
MSL
hPa
Rain since
9am
mm
Dir  Spd
km/h
Gust
km/h
Spd
kts
Gust
kts
29/10:30pm 18.7 15.1 13.1 70 3.2 SSW 24 33 13 18 1014.8 1014.8 0.0
29/10:00pm 18.8 15.6 13.2 70 3.2 S 22 32 12 17 1015.1 1015.1 0.0
29/09:30pm 19.0 15.2 13.6 71 3.1 S 26 33 14 18 1015.1 1015.1 0.0
29/09:00pm 19.1 15.3 13.5 70 3.2 S 26 33 14 18 1015.1 1015.1 0.0
29/08:30pm 19.4 16.4 13.8 70 3.2 S 22 32 12 17 1014.7 1014.7 0.0
29/08:00pm 19.5 16.6 15.0 75 2.6 S 24 33 13 18 1014.4 1014.4 0.0
29/07:30pm 19.6 16.4 15.3 76 2.5 S 26 37 14 20 1014.2 1014.2 0.0
29/07:00pm 19.9 17.4 16.2 79 2.2 S 24 35 13 19 1014.0 1014.0 0.0
29/06:30pm 20.3 16.7 16.3 78 2.4 S 30 41 16 22 1013.8 1013.8 0.0
29/06:00pm 20.7 18.9 16.9 79 2.3 S 22 32 12 17 1013.4 1013.4 0.0
29/05:30pm 21.6 19.7 16.6 73 3.0 SSW 22 30 12 16 1013.3 1013.3 0.0
29/05:00pm 21.5 19.0 16.2 72 3.2 S 24 32 13 17 1013.3 1013.3 0.0
29/04:30pm 21.6 18.8 16.3 72 3.2 S 26 33 14 18 1013.3 1013.3 0.0
29/04:00pm 22.1 19.8 16.6 71 3.3 S 24 33 13 18 1013.4 1013.4 0.0
29/03:30pm 22.6 20.0 16.9 70 3.5 S 26 35 14 19 1013.4 1013.4 0.0
29/03:00pm 22.4 20.1 15.7 66 4.0 S 22 32 12 17 1013.4 1013.4 0.0
29/02:30pm 23.0 20.3 15.6 63 4.4 S 24 32 13 17 1013.7 1013.7 0.0
29/02:00pm 23.4 21.0 15.5 61 4.7 S 22 30 12 16 1014.0 1014.0 0.0
29/01:30pm 23.8 21.5 15.6 60 4.9 S 22 32 12 17 1014.0 1014.0 0.0
29/01:00pm 23.4 20.9 15.2 60 4.9 S 22 30 12 16 1014.0 1014.0 0.0
29/12:30pm 23.1 20.5 14.9 60 4.9 S 22 32 12 17 1014.4 1014.4 0.0
29/12:00pm 23.5 21.5 15.5 60 4.8 S 20 30 11 16 1014.5 1014.5 0.0
29/11:30am 23.3 21.2 16.1 64 4.4 S 22 30 12 16 1014.6 1014.6 0.0
29/11:00am 23.0 21.2 16.1 65 4.2 S 20 28 11 15 1014.8 1014.8 0.0
29/10:30am 22.5 20.5 15.4 64 4.2 S 20 30 11 16 1014.9 1014.9 0.0
29/10:00am 22.4 20.1 15.7 66 4.0 S 22 30 12 16 1015.0 1015.0 0.0
29/09:30am 22.2 20.4 16.0 68 3.7 S 20 33 11 18 1015.0 1015.0 0.0
29/09:00am 21.7 20.0 15.8 69 3.5 S 19 28 10 15 1014.9 1014.9 0.0
29/08:30am 21.3 19.3 15.4 69 3.5 SSE 20 28 11 15 1014.8 1014.8 0.0
29/08:00am 21.6 19.4 15.9 70 3.4 SSE 22 32 12 17 1014.8 1014.8 0.0
29/07:30am 20.8 18.5 15.8 73 3.0 SSE 22 32 12 17 1014.7 1014.7 0.0
29/07:00am 19.8 17.6 15.9 78 2.3 S 22 30 12 16 1014.5 1014.5 0.0
29/06:30am 19.7 17.4 15.6 77 2.4 S 22 33 12 18 1014.1 1014.1 0.0
29/06:00am 19.1 17.1 15.4 79 2.2 S 20 33 11 18 1014.1 1014.1 0.0
29/05:30am 19.3 17.8 16.2 82 1.9 SSE 19 28 10 15 1013.8 1013.8 0.0
29/05:00am 19.5 18.0 16.3 82 1.9 SSE 19 26 10 14 1013.5 1013.5 0.0
29/04:30am 19.6 18.0 16.4 82 1.9 SSE 20 30 11 16 1013.1 1013.1 0.0
29/04:00am 19.6 17.8 17.0 85 1.6 S 22 32 12 17 1012.9 1012.9 0.0
29/03:30am 19.7 18.3 16.9 84 1.7 SSE 20 30 11 16 1012.6 1012.6 0.0
29/03:00am 19.9 18.6 17.3 85 1.6 S 20 32 11 17 1012.7 1012.7 0.0
29/02:30am 20.1 19.0 17.7 86 1.5 S 20 30 11 16 1012.5 1012.5 0.0
29/02:00am 19.9 19.3 18.4 91 0.9 S 19 26 10 14 1012.4 1012.4 0.0
29/01:30am 20.1 19.3 18.1 88 1.2 S 19 26 10 14 1012.6 1012.6 0.0
29/01:00am 20.4 21.0 19.4 94 0.6 S 15 24 8 13 1012.7 1012.7 0.0
29/12:30am 20.3 20.6 19.5 95 0.5 S 17 24 9 13 1013.0 1013.0 0.0
29/12:00am 20.4 20.7 19.6 95 0.5 S 17 24 9 13 1013.2 1013.2 0.0
 
Date/Time
WST
Temp
°C
App
Temp
°C
Dew
Point
°C
Rel
Hum
%
Delta-T
°C
Wind Press
QNH
hPa
Press
MSL
hPa
Rain since
9am
mm
Dir  Spd
km/h
Gust
km/h
Spd
kts
Gust
kts
28/11:30pm 19.8 20.8 19.5 98 0.2 S 13 20 7 11 1013.4 1013.4 0.0
28/11:00pm 19.9 20.4 19.2 96 0.4 SSE 15 20 8 11 1013.6 1013.6 0.0
28/10:30pm 20.0 20.5 19.3 96 0.4 SSE 15 20 8 11 1013.8 1013.8 0.0
28/10:00pm 20.1 20.3 19.3 95 0.5 SSE 17 24 9 13 1014.0 1014.0 0.0
28/09:30pm 20.1 19.7 18.8 92 0.8 SSE 19 24 10 13 1014.1 1014.1 0.0
28/09:00pm 20.5 20.0 19.0 91 0.9 SSE 20 28 11 15 1013.9 1013.9 0.0
28/08:30pm 20.8 20.4 19.3 91 0.9 S 20 32 11 17 1014.0 1014.0 0.0
28/08:00pm 20.8 19.6 19.3 91 0.9 S 24 33 13 18 1013.9 1013.9 0.0
28/07:30pm 21.0 21.1 20.3 96 0.4 S 20 30 11 16 1013.6 1013.6 0.0
28/07:00pm 20.9 20.8 19.9 94 0.6 S 20 28 11 15 1013.3 1013.3 0.0
28/06:30pm 21.4 20.9 20.0 92 0.9 S 22 30 12 16 1013.1 1013.1 0.0
28/06:00pm 21.8 21.2 19.7 88 1.3 S 22 32 12 17 1012.9 1012.9 0.0
28/05:30pm 22.4 21.5 19.9 86 1.6 S 24 35 13 19 1012.9 1012.9 0.0
28/05:00pm 22.4 21.6 20.1 87 1.5 S 24 33 13 18 1012.7 1012.7 0.0
28/04:30pm 23.3 23.3 20.1 82 2.1 S 20 28 11 15 1012.7 1012.7 0.0
28/04:00pm 23.8 24.2 19.9 79 2.5 S 17 26 9 14 1012.7 1012.7 0.0
28/03:30pm 23.9 24.4 20.0 79 2.5 S 17 22 9 12 1012.8 1012.8 0.0
28/03:00pm 23.6 23.6 19.7 79 2.5 S 19 24 10 13 1013.3 1013.3 0.0
28/02:30pm 24.8 24.9 20.3 76 2.9 S 20 32 11 17 1013.6 1013.6 0.0
28/02:00pm 25.3 25.6 20.3 74 3.3 S 19 26 10 14 1013.8 1013.8 0.0
28/01:30pm 24.9 25.2 20.4 76 2.9 SSW 19 28 10 15 1014.2 1014.2 0.0
28/01:00pm 25.2 26.0 20.7 76 2.9 S 17 24 9 13 1014.2 1014.2 0.0
28/12:30pm 24.9 26.1 20.6 77 2.8 S 15 20 8 11 1014.5 1014.5 0.0
28/12:00pm 25.5 27.1 19.2 68 4.0 S 9 13 5 7 1014.0 1014.0 0.0
28/11:30am 24.1 25.1 20.2 79 2.5 S 15 19 8 10 1014.4 1014.4 0.0
28/11:00am 24.2 25.6 20.3 79 2.5 S 13 17 7 9 1014.6 1014.6 0.0
28/10:30am 24.1 25.5 20.4 80 2.4 SSW 13 19 7 10 1015.0 1015.0 0.0
28/10:00am 24.5 26.3 21.2 82 2.2 S 13 19 7 10 1015.3 1015.3 0.0
28/09:30am 24.0 25.2 20.7 82 2.2 SSW 15 19 8 10 1015.2 1015.2 0.0
28/09:00am 23.8 25.6 20.3 81 2.3 SSW 11 15 6 8 1014.7 1014.7 0.0
28/08:30am 23.4 25.5 20.2 82 2.1 S 9 15 5 8 1014.8 1014.8 0.0
28/08:00am 22.9 25.0 20.2 85 1.7 S 9 15 5 8 1015.2 1015.2 0.0
28/07:30am 22.5 23.8 19.3 82 2.0 SSW 11 19 6 10 1014.9 1014.9 0.0
28/07:00am 21.5 22.6 16.7 74 2.9 ENE 6 9 3 5 1014.0 1014.0 0.0
28/06:30am 20.0 22.4 20.0 100 0.0 ENE 7 9 4 5 1013.9 1013.9 0.0
28/06:00am 17.2 18.9 17.2 100 0.0 ENE 4 7 2 4 1013.8 1013.8 0.0
28/05:30am 13.3 13.6 13.3 100 0.0 ENE 4 9 2 5 1013.9 1013.9 0.0
28/05:00am 12.6 12.6 12.4 99 0.1 E 4 4 2 2 1013.8 1013.8 0.0
28/04:30am 12.1 11.9 11.9 99 0.1 E 4 6 2 3 1013.5 1013.5 0.0
28/04:00am 10.9 10.4 9.5 91 0.7 E 2 2 1 1 1013.5 1013.5 0.0
28/03:30am 11.6 10.8 9.5 87 1.1 E 4 6 2 3 1013.6 1013.6 0.0
28/03:00am 12.4 12.2 10.5 88 1.0 E 2 2 1 1 1013.2 1013.2 0.0
28/02:30am 12.4 12.6 10.5 88 1.0 CALM 0 4 0 2 1013.0 1013.0 0.0
28/02:00am 11.7 10.6 7.0 73 2.2 ENE 2 4 1 2 1013.2 1013.2 0.0
28/01:30am 12.6 11.2 7.3 70 2.6 E 4 6 2 3 1013.4 1013.4 0.0
28/01:00am 12.0 10.9 7.1 72 2.4 ENE 2 6 1 3 1013.7 1013.7 0.0
28/12:30am 11.7 10.6 6.8 72 2.3 E 2 4 1 2 1013.9 1013.9 0.0
28/12:00am 12.0 11.2 6.7 70 2.5 CALM 0 0 0 0 1014.3 1014.3 0.0
 
Date/Time
WST
Temp
°C
App
Temp
°C
Dew
Point
°C
Rel
Hum
%
Delta-T
°C
Wind Press
QNH
hPa
Press
MSL
hPa
Rain since
9am
mm
Dir  Spd
km/h
Gust
km/h
Spd
kts
Gust
kts
27/11:30pm 13.0 11.9 6.8 66 3.0 E 2 4 1 2 1014.5 1014.5 0.0
27/11:00pm 13.9 12.8 6.7 62 3.5 E 2 6 1 3 1014.8 1014.8 0.0
27/10:30pm 15.7 14.0 7.5 58 4.1 ESE 6 7 3 4 1014.9 1014.9 0.0
27/10:00pm 18.1 16.3 8.1 52 5.1 ESE 7 9 4 5 1014.9 1014.9 0.0
27/09:30pm 18.0 16.4 8.0 52 5.1 ESE 6 7 3 4 1014.8 1014.8 0.0
27/09:00pm 19.4 18.0 8.7 50 5.6 ESE 6 7 3 4 1014.7 1014.7 0.0
27/08:30pm 20.5 19.0 9.1 48 6.0 ESE 7 9 4 5 1014.4 1014.4 0.0
27/08:00pm 21.0 20.5 12.7 59 4.7 ESE 7 7 4 4 1014.3 1014.3 0.0
27/07:30pm 22.5 22.3 13.0 55 5.4 SE 6 7 3 4 1014.1 1014.1 0.0
27/07:00pm 24.4 23.8 12.4 47 6.9 SE 7 13 4 7 1013.9 1013.9 0.0
27/06:30pm 26.3 25.0 12.4 42 8.0 SE 11 17 6 9 1013.8 1013.8 0.0
27/06:00pm 27.0 25.2 13.4 43 8.0 SSE 15 20 8 11 1013.7 1013.7 0.0
27/05:30pm 27.4 26.5 14.8 46 7.6 SSE 13 20 7 11 1013.5 1013.5 0.0
27/05:00pm 27.4 26.6 15.1 47 7.5 SSE 13 17 7 9 1013.4 1013.4 0.0
27/04:30pm 27.9 27.2 16.5 50 7.1 SSE 15 19 8 10 1013.5 1013.5 0.0
27/04:00pm 26.9 26.1 17.1 55 6.1 SSE 17 22 9 12 1013.5 1013.5 0.0
27/03:30pm 28.0 27.5 16.0 48 7.4 SSE 13 17 7 9 1013.6 1013.6 0.0
27/03:00pm 29.4 29.7 15.9 44 8.3 S 9 13 5 7 1013.7 1013.7 0.0
27/02:30pm 30.2 29.1 13.0 34 10.2 SSE 11 17 6 9 1013.8 1013.8 0.0
27/02:00pm 29.2 29.4 14.6 41 8.8 S 7 11 4 6 1014.1 1014.1 0.0
27/01:30pm 29.4 29.4 15.1 41 8.7 S 9 13 5 7 1014.2 1014.2 0.0
27/01:00pm 29.9 29.8 14.0 37 9.6 SSW 7 11 4 6 1014.3 1014.3 0.0
27/12:30pm 30.4 29.4 12.3 33 10.6 SW 9 15 5 8 1014.4 1014.4 0.0
27/12:00pm 29.4 28.6 14.0 39 9.2 WSW 11 17 6 9 1014.6 1014.6 0.0
27/11:30am 31.4 30.6 11.7 29 11.5 SW 7 9 4 5 1015.0 1015.0 0.0
27/11:00am 33.4 32.0 9.4 23 13.6 W 7 11 4 6 1015.1 1015.1 0.0
27/10:30am 37.3 33.2 4.3 13 17.7 NNE 15 24 8 13 1015.3 1015.3 0.0
27/10:00am 36.0 31.5 4.3 14 16.8 NNE 17 28 9 15 1015.5 1015.5 0.0
27/09:30am 34.4 29.7 5.0 16 15.7 NNE 19 32 10 17 1015.7 1015.7 0.0
27/09:00am 33.2 28.8 7.2 20 14.3 NE 20 32 11 17 1015.7 1015.7 0.0
27/08:30am 31.0 26.2 7.5 23 12.8 NE 22 33 12 18 1015.8 1015.8 0.0
27/08:00am 28.2 23.6 8.0 28 10.9 ENE 22 35 12 19 1016.0 1016.0 0.0
27/07:30am 25.8 20.9 6.9 30 9.9 ENE 22 32 12 17 1016.0 1016.0 0.0
27/07:00am 24.0 19.4 6.3 32 9.1 ENE 20 32 11 17 1015.9 1015.9 0.0
27/06:30am 22.9 18.3 5.8 33 8.6 ENE 19 28 10 15 1015.7 1015.7 0.0
27/06:00am 21.4 17.7 6.1 37 7.7 ENE 15 26 8 14 1015.7 1015.7 0.0
27/05:30am 20.2 16.9 6.5 41 6.9 E 13 22 7 12 1015.7 1015.7 0.0
27/05:00am 16.4 14.7 9.8 65 3.4 ESE 9 19 5 10 1015.5 1015.5 0.0
27/04:30am 15.6 14.6 12.4 81 1.8 ESE 9 13 5 7 1015.6 1015.6 0.0
27/04:00am 15.6 15.0 13.6 88 1.1 SE 9 13 5 7 1015.5 1015.5 0.0
27/03:30am 16.1 15.9 14.8 92 0.7 ESE 9 13 5 7 1015.4 1015.4 0.0
27/03:00am 17.0 16.9 15.9 93 0.6 SE 11 15 6 8 1015.4 1015.4 0.0
27/02:30am 16.0 15.3 13.1 83 1.6 SE 9 11 5 6 1015.4 1015.4 0.0
27/02:00am 15.0 14.2 11.6 80 1.8 SE 7 9 4 5 1015.4 1015.4 0.0
27/01:30am 15.7 14.9 11.7 77 2.2 SE 7 9 4 5 1015.6 1015.6 0.0
27/01:00am 16.6 15.2 12.2 75 2.4 ESE 11 13 6 7 1015.9 1015.9 0.0
27/12:30am 16.5 15.8 12.1 75 2.4 ESE 7 9 4 5 1016.2 1016.2 0.0
27/12:00am 16.6 15.9 13.1 80 2.0 ESE 9 11 5 6 1016.3 1016.3 0.0
 
Date/Time
WST
Temp
°C
App
Temp
°C
Dew
Point
°C
Rel
Hum
%
Delta-T
°C
Wind Press
QNH
hPa
Press
MSL
hPa
Rain since
9am
mm
Dir  Spd
km/h
Gust
km/h
Spd
kts
Gust
kts
26/11:30pm 17.6 17.5 13.9 79 2.1 ESE 7 9 4 5 1016.7 1016.7 0.0
26/11:00pm 18.8 18.8 15.1 79 2.2 SE 9 13 5 7 1016.9 1016.9 0.0

Other formats

Comma delimited format used in spreadsheet applications
http://www.bom.gov.au/fwo/IDW60801/IDW60801.95609.axf

JavaScript Object Notation format (JSON) in row-major order
http://www.bom.gov.au/fwo/IDW60801/IDW60801.95609.json

Data quality

Most of these data are generated automatically and are frequently updated. Quality checks on data are not normally performed. It is possible for incorrect values to appear. Refer to information at About Latest Weather Observations and please check the disclaimer before using these data.